createdAt,value
2022-09-29T00:00:59.124Z,5.60
2022-09-29T00:03:25.533Z,5.93
2022-09-29T00:05:53.198Z,5.75
2022-09-29T00:08:20.595Z,5.20
2022-09-29T00:10:47.189Z,5.65
2022-09-29T00:13:14.240Z,5.22
2022-09-29T00:15:40.710Z,5.70
2022-09-29T00:18:15.725Z,5.20
2022-09-29T00:20:42.223Z,5.22
2022-09-29T00:23:08.620Z,5.53
2022-09-29T00:25:35.073Z,5.68
2022-09-29T00:28:01.550Z,5.60
2022-09-29T00:30:28.002Z,5.97
2022-09-29T00:32:54.376Z,5.90
2022-09-29T00:35:20.841Z,5.55
2022-09-29T00:37:47.400Z,5.93
2022-09-29T00:40:13.833Z,5.70
2022-09-29T00:42:40.704Z,5.85
2022-09-29T00:45:18.052Z,6.20
2022-09-29T00:47:46.674Z,5.55
2022-09-29T00:50:16.791Z,5.22
2022-09-29T00:52:45.000Z,6.18
2022-09-29T00:55:16.318Z,5.85
2022-09-29T00:57:54.192Z,5.30
2022-09-29T01:00:20.892Z,5.47
2022-09-29T01:02:50.491Z,5.60
2022-09-29T01:05:21.025Z,4.95
2022-09-29T01:07:47.853Z,6.03
2022-09-29T01:10:17.271Z,5.45
2022-09-29T01:12:47.418Z,5.40
2022-09-29T01:15:16.366Z,5.00
2022-09-29T01:17:42.804Z,4.90
2022-09-29T01:20:10.211Z,4.80
2022-09-29T01:22:51.581Z,5.20
2022-09-29T01:25:40.460Z,4.97
2022-09-29T01:28:31.761Z,5.47
2022-09-29T01:30:58.060Z,5.57
2022-09-29T01:33:24.479Z,5.43
2022-09-29T01:35:50.803Z,6.13
2022-09-29T01:38:20.051Z,5.20
2022-09-29T01:41:21.968Z,5.95
2022-09-29T01:43:58.964Z,5.90
2022-09-29T01:46:30.941Z,5.60
2022-09-29T01:48:58.680Z,5.68
2022-09-29T01:51:28.027Z,5.70
2022-09-29T01:53:56.095Z,6.13
2022-09-29T01:56:32.135Z,5.80
2022-09-29T01:59:02.585Z,5.88
2022-09-29T02:01:33.323Z,5.68
2022-09-29T02:04:02.346Z,5.30
2022-09-29T02:06:37.924Z,4.80
2022-09-29T02:09:07.588Z,5.28
2022-09-29T02:11:35.460Z,6.50
2022-09-29T02:14:04.468Z,5.85
2022-09-29T02:16:31.988Z,6.45
2022-09-29T02:19:01.708Z,6.88
2022-09-29T02:21:28.848Z,6.85
2022-09-29T02:23:55.511Z,7.38
2022-09-29T02:26:23.841Z,7.55
2022-09-29T02:28:53.158Z,6.65
2022-09-29T02:31:19.816Z,7.25
2022-09-29T02:33:46.191Z,6.45
2022-09-29T02:36:18.783Z,8.00
2022-09-29T02:38:53.085Z,7.50
2022-09-29T02:41:19.400Z,7.13
2022-09-29T02:43:56.277Z,7.57
2022-09-29T02:46:29.043Z,7.13
2022-09-29T02:49:07.271Z,7.68
2022-09-29T02:51:39.867Z,8.00
2022-09-29T02:54:08.994Z,8.25
2022-09-29T02:56:41.783Z,7.78
2022-09-29T02:59:13.431Z,6.57
2022-09-29T03:01:51.353Z,7.25
2022-09-29T03:04:18.418Z,7.47
2022-09-29T03:06:44.969Z,8.40
2022-09-29T03:09:11.396Z,7.70
2022-09-29T03:11:37.746Z,8.38
2022-09-29T03:14:04.675Z,7.63
2022-09-29T03:16:31.110Z,8.02
2022-09-29T03:18:58.005Z,8.48
2022-09-29T03:21:24.395Z,8.23
2022-09-29T03:23:55.368Z,8.82
2022-09-29T03:26:24.054Z,7.97
2022-09-29T03:28:50.981Z,7.88
2022-09-29T03:31:17.517Z,8.77
2022-09-29T03:33:43.925Z,8.30
2022-09-29T03:36:11.711Z,7.63
2022-09-29T03:38:38.571Z,8.02
2022-09-29T03:41:07.014Z,9.07
2022-09-29T03:43:33.513Z,7.40
2022-09-29T03:46:00.830Z,8.20
2022-09-29T03:48:31.431Z,9.35
2022-09-29T03:50:58.747Z,8.68
2022-09-29T03:53:25.139Z,8.55
2022-09-29T03:55:51.810Z,8.30
2022-09-29T03:58:18.602Z,8.30
2022-09-29T04:00:45.014Z,9.00
2022-09-29T04:03:11.496Z,7.88
2022-09-29T04:05:39.326Z,7.28
2022-09-29T04:08:05.848Z,7.00
2022-09-29T04:10:35.934Z,7.45
2022-09-29T04:13:02.266Z,7.28
2022-09-29T04:15:28.703Z,7.93
2022-09-29T04:17:55.270Z,8.18
2022-09-29T04:20:21.702Z,7.57
2022-09-29T04:22:48.046Z,7.78
2022-09-29T04:25:14.667Z,8.45
2022-09-29T04:27:41.035Z,8.38
2022-09-29T04:30:07.750Z,8.07
2022-09-29T04:32:34.147Z,6.68
2022-09-29T04:35:00.565Z,7.85
2022-09-29T04:37:26.961Z,8.02
2022-09-29T04:39:54.238Z,8.57
2022-09-29T04:42:21.034Z,7.95
2022-09-29T04:44:47.401Z,9.27
2022-09-29T04:47:13.983Z,8.43
2022-09-29T04:49:40.315Z,8.73
2022-09-29T04:52:06.860Z,8.18
2022-09-29T04:54:37.629Z,8.65
2022-09-29T04:57:04.673Z,8.52
2022-09-29T04:59:31.041Z,8.80
2022-09-29T05:01:57.416Z,8.50
2022-09-29T05:04:23.813Z,8.60
2022-09-29T05:06:50.306Z,9.52
2022-09-29T05:09:16.749Z,9.18
2022-09-29T05:11:43.154Z,9.65
2022-09-29T05:14:10.535Z,9.23
2022-09-29T05:16:37.037Z,9.32
2022-09-29T05:19:03.477Z,9.57
2022-09-29T05:21:29.969Z,9.90
2022-09-29T05:23:56.497Z,10.60
2022-09-29T05:26:23.212Z,10.38
2022-09-29T05:28:49.604Z,10.57
2022-09-29T05:31:16.225Z,9.85
2022-09-29T05:33:42.672Z,10.68
2022-09-29T05:36:09.972Z,10.43
2022-09-29T05:38:36.839Z,11.23
2022-09-29T05:41:05.340Z,10.55
2022-09-29T05:43:31.882Z,10.55
2022-09-29T05:46:02.381Z,10.07
2022-09-29T05:48:32.054Z,8.88
2022-09-29T05:50:59.224Z,10.15
2022-09-29T05:53:25.698Z,9.32
2022-09-29T05:55:53.145Z,9.82
2022-09-29T05:58:19.479Z,9.50
2022-09-29T06:00:47.009Z,8.48
2022-09-29T06:03:13.475Z,8.75
2022-09-29T06:05:40.337Z,7.65
2022-09-29T06:08:06.833Z,8.02
2022-09-29T06:10:33.504Z,8.85
2022-09-29T06:13:01.400Z,8.60
2022-09-29T06:15:27.934Z,7.53
2022-09-29T06:17:58.067Z,7.68
2022-09-29T06:20:24.892Z,7.80
2022-09-29T06:22:54.777Z,7.18
2022-09-29T06:25:21.267Z,7.55
2022-09-29T06:27:48.273Z,8.23
2022-09-29T06:30:14.708Z,6.68
2022-09-29T06:32:41.435Z,7.50
2022-09-29T06:35:26.852Z,8.13
2022-09-29T06:37:56.519Z,7.63
2022-09-29T06:40:23.718Z,7.68
2022-09-29T06:42:50.326Z,7.78
2022-09-29T06:45:22.074Z,7.05
2022-09-29T06:47:48.796Z,6.57
2022-09-29T06:50:17.410Z,6.70
2022-09-29T06:52:54.516Z,6.03
2022-09-29T06:55:25.093Z,6.40
2022-09-29T06:57:51.880Z,6.47
2022-09-29T07:00:18.448Z,6.00
2022-09-29T07:02:45.871Z,6.35
2022-09-29T07:05:12.363Z,6.88
2022-09-29T07:07:38.880Z,6.35
2022-09-29T07:10:05.535Z,6.00
2022-09-29T07:12:31.881Z,6.43
2022-09-29T07:14:58.228Z,6.05
2022-09-29T07:17:24.666Z,6.05
2022-09-29T07:19:51.040Z,5.97
2022-09-29T07:22:17.514Z,6.10
2022-09-29T07:24:43.962Z,6.28
2022-09-29T07:27:10.342Z,5.97
2022-09-29T07:29:36.887Z,6.15
2022-09-29T07:32:03.309Z,6.10
2022-09-29T07:34:30.449Z,5.72
2022-09-29T07:36:56.823Z,5.53
2022-09-29T07:39:23.518Z,5.80
2022-09-29T07:41:50.566Z,5.70
2022-09-29T07:44:17.350Z,5.78
2022-09-29T07:46:43.723Z,5.50
2022-09-29T07:49:10.160Z,6.15
2022-09-29T07:51:37.734Z,5.25
2022-09-29T07:54:04.762Z,4.50
2022-09-29T07:56:32.945Z,5.55
2022-09-29T07:58:59.378Z,5.20
2022-09-29T08:01:26.954Z,3.92
2022-09-29T08:03:54.495Z,3.70
2022-09-29T08:06:23.816Z,4.50
2022-09-29T08:09:02.514Z,4.40
2022-09-29T08:11:32.406Z,4.38
2022-09-29T08:13:59.580Z,4.57
2022-09-29T08:16:26.468Z,4.43
2022-09-29T08:18:52.955Z,3.80
2022-09-29T08:21:19.487Z,3.70
2022-09-29T08:23:45.975Z,4.22
2022-09-29T08:26:22.726Z,3.80
2022-09-29T08:29:05.706Z,3.55
2022-09-29T08:31:34.676Z,3.80
2022-09-29T08:34:01.098Z,4.18
2022-09-29T08:36:27.512Z,3.70
2022-09-29T08:38:55.880Z,3.95
2022-09-29T08:41:28.653Z,3.55
2022-09-29T08:44:26.413Z,3.53
2022-09-29T08:47:09.725Z,4.00
2022-09-29T08:49:41.720Z,4.10
2022-09-29T08:52:28.542Z,3.70
2022-09-29T08:54:57.892Z,4.00
2022-09-29T08:57:24.787Z,3.75
2022-09-29T09:00:00.303Z,4.05
2022-09-29T09:04:55.588Z,3.22
2022-09-29T09:07:24.776Z,3.28
2022-09-29T09:09:51.234Z,4.03
2022-09-29T09:12:20.604Z,3.47
2022-09-29T09:14:53.117Z,3.90
2022-09-29T09:17:38.251Z,3.83
2022-09-29T09:20:19.063Z,3.63
2022-09-29T09:22:54.919Z,3.35
2022-09-29T09:25:29.772Z,3.20
2022-09-29T09:28:16.978Z,3.60
2022-09-29T09:30:49.600Z,3.45
2022-09-29T09:33:29.872Z,3.65
2022-09-29T09:36:08.822Z,3.70
2022-09-29T09:38:42.957Z,3.60
2022-09-29T09:41:09.665Z,3.58
2022-09-29T09:43:54.969Z,3.90
2022-09-29T09:46:24.206Z,3.30
2022-09-29T09:48:56.602Z,3.40
2022-09-29T09:51:41.476Z,3.35
2022-09-29T09:54:13.343Z,3.50
2022-09-29T09:56:52.063Z,3.33
2022-09-29T09:59:29.571Z,3.30
2022-09-29T10:01:56.035Z,3.10
2022-09-29T10:04:23.683Z,3.03
2022-09-29T10:06:50.725Z,3.33
2022-09-29T10:09:17.309Z,3.15
2022-09-29T10:11:46.847Z,3.35
2022-09-29T10:14:15.252Z,3.38
2022-09-29T10:16:42.498Z,3.25
2022-09-29T10:19:09.577Z,3.13
2022-09-29T10:21:37.346Z,3.20
2022-09-29T10:24:06.280Z,2.53
2022-09-29T10:26:34.997Z,2.90
2022-09-29T10:29:22.047Z,2.50
2022-09-29T10:32:02.526Z,2.67
2022-09-29T10:34:29.968Z,3.03
2022-09-29T10:36:57.702Z,2.90
2022-09-29T10:39:43.280Z,2.80
2022-09-29T10:42:15.542Z,2.83
2022-09-29T10:44:41.983Z,2.70
2022-09-29T10:47:15.113Z,2.80
2022-09-29T10:49:41.593Z,2.67
2022-09-29T10:52:21.640Z,2.70
2022-09-29T10:54:57.694Z,2.83
2022-09-29T10:57:27.920Z,2.85
2022-09-29T10:59:55.606Z,2.25
2022-09-29T11:02:25.186Z,2.00
2022-09-29T11:04:52.412Z,2.70
2022-09-29T11:07:18.815Z,2.85
2022-09-29T11:09:45.424Z,2.80
2022-09-29T11:12:32.341Z,2.60
2022-09-29T11:14:59.812Z,2.92
2022-09-29T11:17:31.176Z,2.90
2022-09-29T11:20:02.266Z,2.88
2022-09-29T11:22:43.613Z,2.88
2022-09-29T11:25:18.674Z,2.63
2022-09-29T11:27:51.635Z,2.83
2022-09-29T11:30:22.333Z,2.85
2022-09-29T11:33:07.821Z,2.88
2022-09-29T11:35:53.861Z,3.43
2022-09-29T11:38:26.342Z,3.03
2022-09-29T11:41:11.154Z,3.10
2022-09-29T11:43:56.603Z,3.00
2022-09-29T11:46:29.188Z,3.10
2022-09-29T11:49:00.384Z,3.00
2022-09-29T11:51:28.645Z,2.90
2022-09-29T11:53:58.159Z,3.28
2022-09-29T11:56:31.651Z,3.08
2022-09-29T11:58:57.972Z,2.88
2022-09-29T12:01:39.697Z,2.72
2022-09-29T12:04:20.913Z,3.33
2022-09-29T12:06:53.745Z,3.22
2022-09-29T12:09:20.230Z,3.08
2022-09-29T12:12:22.495Z,3.33
2022-09-29T12:15:10.762Z,2.83
2022-09-29T12:17:40.034Z,3.10
2022-09-29T12:20:14.034Z,3.40
2022-09-29T12:22:44.893Z,3.20
2022-09-29T12:25:15.229Z,2.80
2022-09-29T12:27:42.544Z,2.90
2022-09-29T12:30:18.495Z,3.03
2022-09-29T12:35:11.110Z,3.03
2022-09-29T12:37:48.163Z,3.10
2022-09-29T12:40:17.789Z,3.20
2022-09-29T12:42:44.191Z,3.10
2022-09-29T12:45:31.693Z,3.25
2022-09-29T12:48:26.036Z,3.05
2022-09-29T12:51:11.488Z,2.90
2022-09-29T12:53:40.409Z,2.70
2022-09-29T12:56:21.997Z,2.85
2022-09-29T12:58:53.814Z,2.90
2022-09-29T13:01:28.610Z,2.80
2022-09-29T13:04:18.684Z,2.90
2022-09-29T13:07:06.343Z,3.08
2022-09-29T13:09:36.549Z,3.17
2022-09-29T13:12:10.526Z,2.97
2022-09-29T13:14:55.647Z,2.90
2022-09-29T13:17:27.926Z,2.95
2022-09-29T13:20:05.482Z,3.20
2022-09-29T13:22:56.584Z,3.10
2022-09-29T13:25:41.547Z,2.90
2022-09-29T13:28:30.548Z,3.00
2022-09-29T13:31:01.312Z,2.90
2022-09-29T13:33:27.701Z,2.75
2022-09-29T13:35:54.303Z,3.00
2022-09-29T13:38:25.773Z,2.97
2022-09-29T13:41:11.249Z,2.80
2022-09-29T13:43:57.565Z,3.13
2022-09-29T13:46:29.009Z,3.22
2022-09-29T13:49:13.670Z,2.80
2022-09-29T13:51:50.304Z,2.90
2022-09-29T13:54:21.544Z,3.00
2022-09-29T13:56:52.356Z,2.90
2022-09-29T13:59:23.074Z,2.58
2022-09-29T14:01:51.004Z,2.70
2022-09-29T14:04:41.022Z,2.85
2022-09-29T14:07:10.690Z,2.70
2022-09-29T14:09:42.090Z,2.80
2022-09-29T14:12:17.120Z,2.90
2022-09-29T14:14:45.368Z,3.00
2022-09-29T14:17:21.044Z,2.70
2022-09-29T14:19:51.482Z,2.75
2022-09-29T14:22:35.911Z,2.75
2022-09-29T14:25:08.353Z,2.67
2022-09-29T14:27:39.755Z,2.53
2022-09-29T14:30:08.899Z,3.03
2022-09-29T14:32:40.992Z,3.15
2022-09-29T14:35:15.554Z,2.80
2022-09-29T14:37:42.048Z,2.80
2022-09-29T14:40:27.338Z,2.90
2022-09-29T14:43:09.629Z,3.10
2022-09-29T14:46:02.295Z,2.90
2022-09-29T14:48:56.036Z,2.88
2022-09-29T14:51:45.433Z,2.78
2022-09-29T14:54:18.699Z,2.80
2022-09-29T14:56:54.878Z,2.97
2022-09-29T14:59:42.596Z,2.90
2022-09-29T15:02:17.200Z,3.38
2022-09-29T15:04:44.273Z,3.47
2022-09-29T15:07:14.406Z,3.10
2022-09-29T15:09:44.822Z,3.08
2022-09-29T15:12:15.671Z,2.80
2022-09-29T15:14:42.244Z,3.10
2022-09-29T15:17:31.281Z,3.33
2022-09-29T15:20:00.805Z,2.58
2022-09-29T15:22:41.979Z,2.80
2022-09-29T15:25:10.613Z,2.72
2022-09-29T15:27:38.573Z,2.70
2022-09-29T15:30:05.304Z,2.58
2022-09-29T15:32:32.180Z,2.58
2022-09-29T15:35:03.311Z,2.92
2022-09-29T15:37:49.646Z,2.72
2022-09-29T15:40:20.768Z,3.00
2022-09-29T15:42:47.352Z,2.95
2022-09-29T15:45:19.827Z,3.38
2022-09-29T15:47:46.218Z,3.70
2022-09-29T15:50:19.851Z,3.63
2022-09-29T15:52:46.796Z,4.40
2022-09-29T15:55:17.758Z,6.05
2022-09-29T15:57:51.107Z,7.38
2022-09-29T16:00:23.284Z,6.95
2022-09-29T16:03:08.428Z,5.15
2022-09-29T16:05:40.215Z,5.03
2022-09-29T16:08:20.214Z,3.90
2022-09-29T16:10:55.088Z,4.20
2022-09-29T16:13:24.064Z,4.35
2022-09-29T16:15:51.633Z,4.80
2022-09-29T16:18:23.678Z,4.20
2022-09-29T16:20:50.663Z,4.32
2022-09-29T16:23:20.113Z,4.35
2022-09-29T16:25:46.565Z,4.65
2022-09-29T16:28:26.188Z,6.50
2022-09-29T16:31:07.967Z,8.93
2022-09-29T16:33:35.279Z,16.40
2022-09-29T16:36:03.438Z,20.17
2022-09-29T16:38:34.892Z,10.32
2022-09-29T16:41:09.615Z,6.22
2022-09-29T16:43:37.519Z,5.50
2022-09-29T16:46:08.152Z,5.88
2022-09-29T16:48:43.924Z,6.05
2022-09-29T16:51:37.776Z,5.13
2022-09-29T16:54:01.995Z,4.88
2022-09-29T16:56:32.074Z,4.40
2022-09-29T16:59:04.329Z,3.95
2022-09-29T17:01:30.723Z,3.72
2022-09-29T17:03:57.249Z,4.38
2022-09-29T17:06:23.639Z,5.07
2022-09-29T17:08:52.363Z,4.10
2022-09-29T17:11:19.108Z,4.20
2022-09-29T17:13:45.601Z,4.63
2022-09-29T17:16:21.260Z,4.70
2022-09-29T17:18:52.541Z,5.07
2022-09-29T17:21:19.782Z,5.05
2022-09-29T17:23:46.445Z,4.85
2022-09-29T17:26:36.476Z,5.07
2022-09-29T17:29:03.280Z,5.15
2022-09-29T17:31:29.714Z,13.30
2022-09-29T17:33:57.518Z,14.75
2022-09-29T17:36:24.225Z,5.82
2022-09-29T17:38:51.831Z,4.43
2022-09-29T17:41:18.284Z,6.85
2022-09-29T17:43:47.737Z,7.93
2022-09-29T17:46:16.075Z,10.00
2022-09-29T17:48:42.557Z,139.70
2022-09-29T17:51:12.939Z,116.07
2022-09-29T17:53:39.735Z,66.63
2022-09-29T17:56:06.264Z,10.32
2022-09-29T17:58:32.686Z,12.20
2022-09-29T18:01:00.323Z,6.43
2022-09-29T18:03:27.260Z,6.38
2022-09-29T18:06:00.137Z,9.65
2022-09-29T18:08:27.778Z,5.65
2022-09-29T18:10:58.241Z,6.65
2022-09-29T18:13:27.421Z,6.32
2022-09-29T18:15:55.559Z,6.80
2022-09-29T18:18:23.255Z,6.18
2022-09-29T18:20:51.130Z,7.40
2022-09-29T18:23:20.412Z,6.72
2022-09-29T18:25:50.319Z,7.40
2022-09-29T18:28:17.675Z,8.02
2022-09-29T18:30:45.323Z,11.30
2022-09-29T18:33:15.946Z,11.27
2022-09-29T18:35:43.408Z,13.52
2022-09-29T18:38:10.681Z,13.32
2022-09-29T18:40:38.478Z,10.93
2022-09-29T18:43:06.484Z,13.30
2022-09-29T18:45:35.480Z,13.30
2022-09-29T18:48:06.212Z,14.55
2022-09-29T18:50:34.197Z,13.20
2022-09-29T18:53:01.751Z,11.98
2022-09-29T18:55:29.069Z,12.70
2022-09-29T18:57:56.971Z,11.73
2022-09-29T19:00:24.760Z,12.02
2022-09-29T19:02:52.295Z,10.38
2022-09-29T19:05:24.737Z,10.45
2022-09-29T19:07:54.610Z,10.05
2022-09-29T19:10:22.151Z,11.75
2022-09-29T19:12:50.678Z,12.63
2022-09-29T19:15:18.911Z,12.50
2022-09-29T19:17:45.647Z,13.23
2022-09-29T19:20:13.657Z,14.25
2022-09-29T19:22:42.791Z,15.65
2022-09-29T19:25:12.537Z,16.63
2022-09-29T19:27:40.301Z,17.42
2022-09-29T19:30:06.933Z,16.98
2022-09-29T19:32:33.496Z,17.55
2022-09-29T19:35:00.079Z,16.98
2022-09-29T19:37:26.523Z,20.63
2022-09-29T19:39:54.848Z,17.20
2022-09-29T19:42:21.723Z,15.55
2022-09-29T19:44:48.714Z,13.93
2022-09-29T19:47:15.671Z,15.13
2022-09-29T19:49:42.138Z,13.88
2022-09-29T19:52:08.735Z,13.25
2022-09-29T19:54:37.970Z,15.45
2022-09-29T19:57:07.548Z,13.45
2022-09-29T19:59:35.638Z,12.18
2022-09-29T20:02:02.826Z,12.65
2022-09-29T20:04:30.876Z,13.43
2022-09-29T20:06:57.713Z,14.40
2022-09-29T20:09:24.997Z,13.25
2022-09-29T20:11:51.498Z,14.45
2022-09-29T20:14:20.672Z,13.68
2022-09-29T20:16:47.113Z,14.38
2022-09-29T20:19:15.508Z,17.13
2022-09-29T20:21:45.657Z,14.65
2022-09-29T20:24:14.394Z,16.42
2022-09-29T20:26:41.687Z,15.77
2022-09-29T20:29:08.909Z,16.08
2022-09-29T20:31:36.460Z,16.73
2022-09-29T20:34:02.932Z,16.95
2022-09-29T20:36:29.350Z,18.75
2022-09-29T20:38:55.847Z,18.20
2022-09-29T20:41:22.568Z,17.83
2022-09-29T20:43:51.145Z,16.40
2022-09-29T20:46:17.874Z,17.38
2022-09-29T20:48:45.006Z,18.80
2022-09-29T20:51:16.211Z,16.02
2022-09-29T20:53:50.628Z,18.13
2022-09-29T20:56:17.563Z,17.83
2022-09-29T20:58:45.079Z,18.50
2022-09-29T21:01:13.654Z,17.50
2022-09-29T21:03:40.224Z,20.10
2022-09-29T21:06:06.570Z,20.38
2022-09-29T21:08:33.186Z,19.30
2022-09-29T21:11:00.519Z,21.45
2022-09-29T21:13:27.130Z,19.90
2022-09-29T21:15:53.610Z,22.20
2022-09-29T21:18:20.001Z,25.00
2022-09-29T21:20:46.431Z,19.08
2022-09-29T21:23:13.646Z,18.20
2022-09-29T21:25:40.037Z,17.85
2022-09-29T21:28:07.048Z,17.98
2022-09-29T21:30:33.659Z,18.30
2022-09-29T21:33:00.233Z,18.08
2022-09-29T21:35:26.678Z,14.95
2022-09-29T21:37:54.180Z,16.67
2022-09-29T21:40:23.114Z,16.42
2022-09-29T21:42:49.514Z,15.23
2022-09-29T21:45:15.985Z,15.93
2022-09-29T21:48:14.872Z,15.93
2022-09-29T21:50:41.379Z,15.45
2022-09-29T21:53:07.979Z,16.48
2022-09-29T21:55:34.345Z,14.00
2022-09-29T21:58:00.770Z,16.75
2022-09-29T22:00:27.149Z,16.35
2022-09-29T22:02:53.702Z,16.33
2022-09-29T22:05:20.116Z,15.82
2022-09-29T22:07:47.615Z,15.65
2022-09-29T22:10:14.105Z,15.73
2022-09-29T22:12:40.558Z,16.15
2022-09-29T22:15:07.321Z,15.77
2022-09-29T22:17:34.517Z,15.05
2022-09-29T22:20:01.069Z,15.63
2022-09-29T22:22:27.451Z,14.70
2022-09-29T22:24:53.847Z,14.38
2022-09-29T22:27:20.329Z,17.83
2022-09-29T22:29:47.049Z,16.48
2022-09-29T22:32:13.372Z,17.08
2022-09-29T22:34:39.756Z,16.48
2022-09-29T22:37:06.125Z,16.95
2022-09-29T22:39:32.520Z,16.50
2022-09-29T22:42:01.423Z,17.33
2022-09-29T22:44:27.930Z,16.83
2022-09-29T22:46:54.564Z,18.00
2022-09-29T22:49:21.821Z,18.83
2022-09-29T22:51:48.310Z,17.15
2022-09-29T22:54:14.844Z,17.90
2022-09-29T22:56:41.693Z,17.35
2022-09-29T22:59:08.387Z,18.50
2022-09-29T23:01:34.948Z,17.48
2022-09-29T23:04:01.528Z,17.13
2022-09-29T23:06:27.986Z,18.38
2022-09-29T23:08:55.758Z,17.05
2022-09-29T23:11:22.278Z,17.95
2022-09-29T23:13:49.386Z,16.77
2022-09-29T23:16:16.719Z,17.42
2022-09-29T23:18:44.867Z,16.77
2022-09-29T23:21:13.006Z,17.58
2022-09-29T23:23:39.772Z,15.98
2022-09-29T23:26:06.304Z,15.40
2022-09-29T23:28:32.648Z,15.45
2022-09-29T23:31:02.806Z,15.20
2022-09-29T23:33:29.169Z,16.15
2022-09-29T23:35:55.533Z,16.70
2022-09-29T23:38:40.437Z,16.58
2022-09-29T23:41:07.293Z,15.07
2022-09-29T23:43:33.628Z,17.33
2022-09-29T23:45:59.984Z,16.15
2022-09-29T23:48:26.641Z,17.23
2022-09-29T23:50:53.049Z,16.23
2022-09-29T23:53:27.061Z,16.75
2022-09-29T23:55:53.426Z,16.73
2022-09-29T23:58:19.817Z,18.27
